createdAt,value
2019-03-04T00:00:44.179Z,2.17
2019-03-04T00:02:48.042Z,2.53
2019-03-04T00:04:51.863Z,2.40
2019-03-04T00:06:55.760Z,2.70
2019-03-04T00:08:59.662Z,2.33
2019-03-04T00:11:03.577Z,2.57
2019-03-04T00:13:07.606Z,2.87
2019-03-04T00:15:11.588Z,2.00
2019-03-04T00:17:15.394Z,2.43
2019-03-04T00:19:19.293Z,2.33
2019-03-04T00:21:22.809Z,2.53
2019-03-04T00:23:26.315Z,2.70
2019-03-04T00:25:29.840Z,2.40
2019-03-04T00:27:33.696Z,2.20
2019-03-04T00:29:37.498Z,2.50
2019-03-04T00:31:41.391Z,2.43
2019-03-04T00:33:45.201Z,2.40
2019-03-04T00:35:49.124Z,2.40
2019-03-04T00:37:53.021Z,2.60
2019-03-04T00:39:56.919Z,2.53
2019-03-04T00:42:00.844Z,2.57
2019-03-04T00:44:04.739Z,2.57
2019-03-04T00:46:08.532Z,2.57
2019-03-04T00:48:12.065Z,2.40
2019-03-04T00:50:17.305Z,2.30
2019-03-04T00:52:21.166Z,2.40
2019-03-04T00:54:24.754Z,2.37
2019-03-04T00:56:28.562Z,2.50
2019-03-04T00:58:32.465Z,2.60
2019-03-04T01:00:35.986Z,2.50
2019-03-04T01:02:39.867Z,2.73
2019-03-04T01:04:43.769Z,2.63
2019-03-04T01:06:47.592Z,2.70
2019-03-04T01:08:51.498Z,2.53
2019-03-04T01:10:55.393Z,2.83
2019-03-04T01:12:59.302Z,2.83
2019-03-04T01:15:02.872Z,2.67
2019-03-04T01:17:06.408Z,3.37
2019-03-04T01:19:09.999Z,2.97
2019-03-04T01:21:13.891Z,2.93
2019-03-04T01:23:17.713Z,2.67
2019-03-04T01:25:21.534Z,2.70
2019-03-04T01:27:25.407Z,2.93
2019-03-04T01:29:29.198Z,2.50
2019-03-04T01:31:33.117Z,2.70
2019-03-04T01:33:36.927Z,2.83
2019-03-04T01:35:40.827Z,3.23
2019-03-04T01:37:44.627Z,2.97
2019-03-04T01:39:48.157Z,3.57
2019-03-04T01:41:51.972Z,3.10
2019-03-04T01:43:55.536Z,3.03
2019-03-04T01:45:59.033Z,3.13
2019-03-04T01:48:02.938Z,2.80
2019-03-04T01:50:09.596Z,3.30
2019-03-04T01:52:13.141Z,3.07
2019-03-04T01:54:18.697Z,2.60
2019-03-04T01:56:24.045Z,3.23
2019-03-04T01:58:29.019Z,3.17
2019-03-04T02:00:32.927Z,3.47
2019-03-04T02:02:36.467Z,3.47
2019-03-04T02:04:39.995Z,2.83
2019-03-04T02:06:43.513Z,2.90
2019-03-04T02:08:49.147Z,3.63
2019-03-04T02:10:53.054Z,3.40
2019-03-04T02:12:56.859Z,3.47
2019-03-04T02:15:00.755Z,3.70
2019-03-04T02:17:04.563Z,3.50
2019-03-04T02:19:08.377Z,3.50
2019-03-04T02:21:12.281Z,3.60
2019-03-04T02:23:16.173Z,3.93
2019-03-04T02:25:39.299Z,3.57
2019-03-04T02:27:45.913Z,3.47
2019-03-04T02:29:49.815Z,3.30
2019-03-04T02:31:53.704Z,3.27
2019-03-04T02:33:57.527Z,3.50
2019-03-04T02:36:01.429Z,3.70
2019-03-04T02:38:05.336Z,3.87
2019-03-04T02:40:09.630Z,3.30
2019-03-04T02:42:13.185Z,3.50
2019-03-04T02:44:17.038Z,3.40
2019-03-04T02:46:20.548Z,3.20
2019-03-04T02:48:24.094Z,3.57
2019-03-04T02:50:27.613Z,3.63
2019-03-04T02:52:31.434Z,3.57
2019-03-04T02:54:36.444Z,3.80
2019-03-04T02:56:39.966Z,4.13
2019-03-04T02:58:46.858Z,3.60
2019-03-04T03:00:50.762Z,3.40
2019-03-04T03:02:54.276Z,3.23
2019-03-04T03:04:58.145Z,3.10
2019-03-04T03:07:01.956Z,2.73
2019-03-04T03:09:07.718Z,3.40
2019-03-04T03:11:11.595Z,3.53
2019-03-04T03:13:15.412Z,3.50
2019-03-04T03:15:20.658Z,3.33
2019-03-04T03:17:24.553Z,3.27
2019-03-04T03:19:28.070Z,3.90
2019-03-04T03:21:31.603Z,3.67
2019-03-04T03:23:37.871Z,3.90
2019-03-04T03:25:44.153Z,3.50
2019-03-04T03:27:47.700Z,3.23
2019-03-04T03:29:52.195Z,3.47
2019-03-04T03:31:55.900Z,3.20
2019-03-04T03:33:59.873Z,3.67
2019-03-04T03:36:03.709Z,3.23
2019-03-04T03:38:07.594Z,3.40
2019-03-04T03:40:14.122Z,3.63
2019-03-04T03:42:19.136Z,3.80
2019-03-04T03:44:23.202Z,3.40
2019-03-04T03:46:26.717Z,3.33
2019-03-04T03:48:30.815Z,3.30
2019-03-04T03:50:34.772Z,2.90
2019-03-04T03:52:38.539Z,3.40
2019-03-04T03:54:42.426Z,3.50
2019-03-04T03:56:46.327Z,3.17
2019-03-04T03:58:50.137Z,3.47
2019-03-04T04:00:53.671Z,3.37
2019-03-04T04:02:57.205Z,3.50
2019-03-04T04:05:00.734Z,3.00
2019-03-04T04:07:04.647Z,2.63
2019-03-04T04:09:08.542Z,3.13
2019-03-04T04:11:14.186Z,3.40
2019-03-04T04:13:17.982Z,3.10
2019-03-04T04:15:21.990Z,2.60
2019-03-04T04:17:25.897Z,3.13
2019-03-04T04:19:29.803Z,3.60
2019-03-04T04:21:33.694Z,3.33
2019-03-04T04:23:40.061Z,2.90
2019-03-04T04:25:43.863Z,2.87
2019-03-04T04:27:47.378Z,3.20
2019-03-04T04:29:50.929Z,3.00
2019-03-04T04:31:55.084Z,3.10
2019-03-04T04:33:58.624Z,3.07
2019-03-04T04:36:02.131Z,2.70
2019-03-04T04:38:05.961Z,3.50
2019-03-04T04:40:11.607Z,3.20
2019-03-04T04:42:15.411Z,3.07
2019-03-04T04:44:19.223Z,3.07
2019-03-04T04:46:38.283Z,2.50
2019-03-04T04:48:41.791Z,2.60
2019-03-04T04:50:45.355Z,2.90
2019-03-04T04:52:49.173Z,2.47
2019-03-04T04:54:52.979Z,3.33
2019-03-04T04:56:56.895Z,2.57
2019-03-04T04:59:00.697Z,2.53
2019-03-04T05:01:04.601Z,2.73
2019-03-04T05:03:08.391Z,2.80
2019-03-04T05:05:12.422Z,2.90
2019-03-04T05:07:16.323Z,2.50
2019-03-04T05:09:20.227Z,3.10
2019-03-04T05:11:23.731Z,3.17
2019-03-04T05:13:28.533Z,2.83
2019-03-04T05:15:32.345Z,2.43
2019-03-04T05:17:36.143Z,2.77
2019-03-04T05:19:39.956Z,2.70
2019-03-04T05:21:43.755Z,3.00
2019-03-04T05:23:47.655Z,2.83
2019-03-04T05:25:51.464Z,2.63
2019-03-04T05:27:58.319Z,2.53
2019-03-04T05:30:01.897Z,2.70
2019-03-04T05:32:05.736Z,2.57
2019-03-04T05:34:09.550Z,2.70
2019-03-04T05:36:13.441Z,2.67
2019-03-04T05:38:17.256Z,2.40
2019-03-04T05:40:23.968Z,2.43
2019-03-04T05:42:27.225Z,2.47
2019-03-04T05:44:31.111Z,2.60
2019-03-04T05:46:35.015Z,2.87
2019-03-04T05:48:38.549Z,2.57
2019-03-04T05:50:42.063Z,2.60
2019-03-04T05:52:45.933Z,2.30
2019-03-04T05:54:49.730Z,2.23
2019-03-04T05:56:53.520Z,2.37
2019-03-04T05:58:57.316Z,2.97
2019-03-04T06:01:15.659Z,2.83
2019-03-04T06:03:23.577Z,2.93
2019-03-04T06:05:27.377Z,2.50
2019-03-04T06:07:32.821Z,2.77
2019-03-04T06:09:36.727Z,3.10
2019-03-04T06:11:40.315Z,3.07
2019-03-04T06:13:44.225Z,2.80
2019-03-04T06:15:48.120Z,2.53
2019-03-04T06:17:51.932Z,3.17
2019-03-04T06:19:55.853Z,2.50
2019-03-04T06:21:59.640Z,3.23
2019-03-04T06:24:03.539Z,2.60
2019-03-04T06:26:07.073Z,2.53
2019-03-04T06:28:11.058Z,2.83
2019-03-04T06:30:17.822Z,1.77
2019-03-04T06:32:21.357Z,2.10
2019-03-04T06:34:25.226Z,1.90
2019-03-04T06:36:29.118Z,2.00
2019-03-04T06:38:35.015Z,2.10
2019-03-04T06:40:38.165Z,1.60
2019-03-04T06:42:41.694Z,1.87
2019-03-04T06:44:47.820Z,2.10
2019-03-04T06:46:54.684Z,1.83
2019-03-04T06:49:01.067Z,1.80
2019-03-04T06:51:10.863Z,1.70
2019-03-04T06:53:17.791Z,1.90
2019-03-04T06:55:48.398Z,1.80
2019-03-04T06:57:51.931Z,2.13
2019-03-04T07:00:01.293Z,1.80
2019-03-04T07:02:25.833Z,1.53
2019-03-04T07:04:43.756Z,1.93
2019-03-04T07:06:47.564Z,2.07
2019-03-04T07:08:54.132Z,1.97
2019-03-04T07:10:57.671Z,2.47
2019-03-04T07:13:01.532Z,2.07
2019-03-04T07:15:07.900Z,2.23
2019-03-04T07:17:11.688Z,1.97
2019-03-04T07:19:18.986Z,2.40
2019-03-04T07:21:22.891Z,2.47
2019-03-04T07:23:26.422Z,1.87
2019-03-04T07:25:29.954Z,2.00
2019-03-04T07:27:33.778Z,2.13
2019-03-04T07:29:37.590Z,2.40
2019-03-04T07:31:41.415Z,1.73
2019-03-04T07:33:45.208Z,1.60
2019-03-04T07:35:49.098Z,1.60
2019-03-04T07:38:04.780Z,1.30
2019-03-04T07:40:16.360Z,1.73
2019-03-04T07:42:20.378Z,1.57
2019-03-04T07:44:23.898Z,1.80
2019-03-04T07:46:27.493Z,2.23
2019-03-04T07:48:31.378Z,2.40
2019-03-04T07:50:37.239Z,2.07
2019-03-04T07:52:41.132Z,1.10
2019-03-04T07:54:46.856Z,1.50
2019-03-04T07:56:50.792Z,1.47
2019-03-04T07:58:54.382Z,1.17
2019-03-04T08:00:57.937Z,1.33
2019-03-04T08:03:01.458Z,1.50
2019-03-04T08:05:08.376Z,1.60
2019-03-04T08:07:37.555Z,1.20
2019-03-04T08:10:09.916Z,1.17
2019-03-04T08:12:34.508Z,1.23
2019-03-04T08:14:38.036Z,1.40
2019-03-04T08:16:41.910Z,1.40
2019-03-04T08:18:45.728Z,1.60
2019-03-04T08:20:49.619Z,2.07
2019-03-04T08:22:53.478Z,1.40
2019-03-04T08:24:57.545Z,0.80
2019-03-04T08:27:03.173Z,0.60
2019-03-04T08:29:07.866Z,0.70
2019-03-04T08:31:12.424Z,0.70
2019-03-04T08:33:16.654Z,0.60
2019-03-04T08:35:20.857Z,1.15
2019-03-04T08:37:25.070Z,0.60
2019-03-04T08:39:28.872Z,0.72
2019-03-04T08:41:32.976Z,0.80
2019-03-04T08:43:37.708Z,1.22
2019-03-04T08:45:41.599Z,0.82
2019-03-04T08:47:45.724Z,1.00
2019-03-04T08:49:49.828Z,0.90
2019-03-04T08:51:53.645Z,0.70
2019-03-04T08:53:57.502Z,0.70
2019-03-04T08:56:01.654Z,0.90
2019-03-04T08:58:05.760Z,0.93
2019-03-04T09:00:16.018Z,0.80
2019-03-04T09:02:19.846Z,1.42
2019-03-04T09:04:25.878Z,0.90
2019-03-04T09:06:29.713Z,1.05
2019-03-04T09:08:33.894Z,1.00
2019-03-04T09:10:38.617Z,1.07
2019-03-04T09:12:44.867Z,1.00
2019-03-04T09:14:48.682Z,1.23
2019-03-04T09:16:52.589Z,4.33
2019-03-04T09:18:56.392Z,1.60
2019-03-04T09:21:00.484Z,1.20
2019-03-04T09:23:04.410Z,1.40
2019-03-04T09:25:14.544Z,1.92
2019-03-04T09:27:18.762Z,1.87
2019-03-04T09:29:22.872Z,1.30
2019-03-04T09:31:27.414Z,5.55
2019-03-04T09:33:31.510Z,2.05
2019-03-04T09:35:35.622Z,1.20
2019-03-04T09:37:39.448Z,1.55
2019-03-04T09:39:43.618Z,1.42
2019-03-04T09:41:48.150Z,1.85
2019-03-04T09:43:55.538Z,1.20
2019-03-04T09:45:59.356Z,1.10
2019-03-04T09:48:03.553Z,1.60
2019-03-04T09:50:11.033Z,4.30
2019-03-04T09:52:15.167Z,3.55
2019-03-04T09:54:19.269Z,1.32
2019-03-04T09:56:23.455Z,1.20
2019-03-04T09:58:27.688Z,1.37
2019-03-04T10:00:44.186Z,1.50
2019-03-04T10:02:48.131Z,1.60
2019-03-04T10:04:55.383Z,1.75
2019-03-04T10:07:08.554Z,1.95
2019-03-04T10:09:33.814Z,1.87
2019-03-04T10:11:57.487Z,1.67
2019-03-04T10:14:16.568Z,1.60
2019-03-04T10:16:45.016Z,1.70
2019-03-04T10:19:14.428Z,2.10
2019-03-04T10:21:36.777Z,1.60
2019-03-04T10:23:52.351Z,1.50
2019-03-04T10:26:01.985Z,1.47
2019-03-04T10:28:34.864Z,2.07
2019-03-04T10:30:53.825Z,2.30
2019-03-04T10:33:16.710Z,1.90
2019-03-04T10:35:29.701Z,1.87
2019-03-04T10:37:56.332Z,1.63
2019-03-04T10:40:19.888Z,1.67
2019-03-04T10:42:49.298Z,1.70
2019-03-04T10:45:02.317Z,2.20
2019-03-04T10:47:06.228Z,1.93
2019-03-04T10:49:10.168Z,1.63
2019-03-04T10:51:15.575Z,1.53
2019-03-04T10:53:21.440Z,1.50
2019-03-04T10:55:27.278Z,1.90
2019-03-04T10:57:30.809Z,1.70
2019-03-04T10:59:34.352Z,1.23
2019-03-04T11:01:39.107Z,1.33
2019-03-04T11:03:42.992Z,1.33
2019-03-04T11:05:46.578Z,1.27
2019-03-04T11:07:50.402Z,2.00
2019-03-04T11:09:54.310Z,1.90
2019-03-04T11:11:58.195Z,2.07
2019-03-04T11:14:01.719Z,1.53
2019-03-04T11:16:05.331Z,1.70
2019-03-04T11:18:08.974Z,1.90
2019-03-04T11:20:12.904Z,1.50
2019-03-04T11:22:19.193Z,1.63
2019-03-04T11:24:23.074Z,2.47
2019-03-04T11:26:30.481Z,1.40
2019-03-04T11:28:34.366Z,1.40
2019-03-04T11:30:37.905Z,1.37
2019-03-04T11:32:41.886Z,1.83
2019-03-04T11:34:45.773Z,2.17
2019-03-04T11:36:49.679Z,1.73
2019-03-04T11:38:56.642Z,1.63
2019-03-04T11:41:00.458Z,2.00
2019-03-04T11:43:04.464Z,1.30
2019-03-04T11:45:12.170Z,1.33
2019-03-04T11:47:17.211Z,1.40
2019-03-04T11:49:21.095Z,1.57
2019-03-04T11:51:25.013Z,2.87
2019-03-04T11:53:29.032Z,1.73
2019-03-04T11:55:33.735Z,2.30
2019-03-04T11:57:37.265Z,1.53
2019-03-04T11:59:42.459Z,1.47
2019-03-04T12:01:48.017Z,1.50
2019-03-04T12:03:51.564Z,2.03
2019-03-04T12:05:55.089Z,1.87
2019-03-04T12:07:58.909Z,1.90
2019-03-04T12:10:02.625Z,1.73
2019-03-04T12:12:06.517Z,2.17
2019-03-04T12:14:10.326Z,2.90
2019-03-04T12:16:14.226Z,1.93
2019-03-04T12:18:17.739Z,1.70
2019-03-04T12:20:21.719Z,1.90
2019-03-04T12:22:25.521Z,2.07
2019-03-04T12:24:29.453Z,2.80
2019-03-04T12:26:33.455Z,2.47
2019-03-04T12:28:37.347Z,1.77
2019-03-04T12:30:41.173Z,2.17
2019-03-04T12:32:45.364Z,3.42
2019-03-04T12:34:49.477Z,2.25
2019-03-04T12:36:53.695Z,1.98
2019-03-04T12:38:57.799Z,1.77
2019-03-04T12:41:01.915Z,2.27
2019-03-04T12:43:05.755Z,2.60
2019-03-04T12:45:12.486Z,2.40
2019-03-04T12:47:16.594Z,2.10
2019-03-04T12:49:20.815Z,2.27
2019-03-04T12:51:24.662Z,2.92
2019-03-04T12:53:37.024Z,2.10
2019-03-04T12:55:34.878Z,2.65
2019-03-04T12:57:39.808Z,2.40
2019-03-04T12:59:45.341Z,2.15
2019-03-04T13:01:49.351Z,1.95
2019-03-04T13:03:53.177Z,2.70
2019-03-04T13:05:57.089Z,4.83
2019-03-04T13:08:00.991Z,3.35
2019-03-04T13:10:08.346Z,2.60
2019-03-04T13:12:12.163Z,3.20
2019-03-04T13:14:16.066Z,2.67
2019-03-04T13:16:19.911Z,2.95
2019-03-04T13:18:24.091Z,2.70
2019-03-04T13:20:29.743Z,2.05
2019-03-04T13:22:33.562Z,2.75
2019-03-04T13:24:40.485Z,2.30
2019-03-04T13:26:44.624Z,2.02
2019-03-04T13:28:48.725Z,2.58
2019-03-04T13:30:52.572Z,1.50
2019-03-04T13:32:56.747Z,1.85
2019-03-04T13:35:00.853Z,1.70
2019-03-04T13:37:05.379Z,2.00
2019-03-04T13:39:11.126Z,1.45
2019-03-04T13:41:14.971Z,1.95
2019-03-04T13:43:19.161Z,1.57
2019-03-04T13:45:23.551Z,2.87
2019-03-04T13:47:27.761Z,1.62
2019-03-04T13:49:33.936Z,1.55
2019-03-04T13:51:38.036Z,1.80
2019-03-04T13:53:42.253Z,2.35
2019-03-04T13:55:46.373Z,1.85
2019-03-04T13:57:50.570Z,2.95
2019-03-04T13:59:54.793Z,2.45
2019-03-04T14:01:58.599Z,2.40
2019-03-04T14:04:02.799Z,1.87
2019-03-04T14:06:06.633Z,2.12
2019-03-04T14:08:10.800Z,2.02
2019-03-04T14:10:17.078Z,2.98
2019-03-04T14:12:20.993Z,1.50
2019-03-04T14:14:24.821Z,1.60
2019-03-04T14:16:28.974Z,1.42
2019-03-04T14:18:33.294Z,1.40
2019-03-04T14:20:37.522Z,1.40
2019-03-04T14:22:41.336Z,1.20
2019-03-04T14:24:45.441Z,1.62
2019-03-04T14:26:50.076Z,1.30
2019-03-04T14:28:54.273Z,1.40
2019-03-04T14:30:58.482Z,1.07
2019-03-04T14:33:02.603Z,1.25
2019-03-04T14:35:07.113Z,1.10
2019-03-04T14:37:11.233Z,1.12
2019-03-04T14:39:15.653Z,1.00
2019-03-04T14:41:19.854Z,1.25
2019-03-04T14:43:24.097Z,0.80
2019-03-04T14:45:29.007Z,0.88
2019-03-04T14:47:33.201Z,0.82
2019-03-04T14:49:44.519Z,0.95
2019-03-04T14:51:43.193Z,0.80
2019-03-04T14:53:47.399Z,0.45
2019-03-04T14:55:51.219Z,0.40
2019-03-04T14:57:55.402Z,0.40
2019-03-04T14:59:59.612Z,0.40
2019-03-04T15:02:03.820Z,0.40
2019-03-04T15:04:07.658Z,0.30
2019-03-04T15:06:11.829Z,0.30
2019-03-04T15:08:16.069Z,0.40
2019-03-04T15:10:20.365Z,0.33
2019-03-04T15:12:24.502Z,0.40
2019-03-04T15:14:28.309Z,0.40
2019-03-04T15:16:33.660Z,1.30
2019-03-04T15:18:37.831Z,0.30
2019-03-04T15:20:42.045Z,0.20
2019-03-04T15:22:46.274Z,0.35
2019-03-04T15:24:50.375Z,0.40
2019-03-04T15:26:54.583Z,0.30
2019-03-04T15:28:58.709Z,0.10
2019-03-04T15:31:04.035Z,0.23
2019-03-04T15:33:17.660Z,0.33
2019-03-04T15:35:14.198Z,0.30
2019-03-04T15:37:18.029Z,0.30
2019-03-04T15:39:23.207Z,0.20
2019-03-04T15:41:27.253Z,0.30
2019-03-04T15:43:31.357Z,0.40
2019-03-04T15:45:38.515Z,0.30
2019-03-04T15:47:43.145Z,0.55
2019-03-04T15:49:47.289Z,0.30
2019-03-04T15:51:51.375Z,0.30
2019-03-04T15:53:55.605Z,0.30
2019-03-04T15:55:59.808Z,0.40
2019-03-04T15:58:04.529Z,0.50
2019-03-04T16:00:13.968Z,0.57
2019-03-04T16:02:18.484Z,0.40
2019-03-04T16:04:22.917Z,0.95
2019-03-04T16:06:27.223Z,0.62
2019-03-04T16:08:31.846Z,0.60
2019-03-04T16:10:39.625Z,0.60
2019-03-04T16:12:43.627Z,0.55
2019-03-04T16:14:49.599Z,0.80
2019-03-04T16:16:53.709Z,1.10
2019-03-04T16:19:00.361Z,0.80
2019-03-04T16:21:04.791Z,1.65
2019-03-04T16:23:09.006Z,1.12
2019-03-04T16:25:13.419Z,0.90
2019-03-04T16:27:17.636Z,0.90
2019-03-04T16:29:21.745Z,0.75
2019-03-04T16:31:25.863Z,0.90
2019-03-04T16:33:30.078Z,0.90
2019-03-04T16:35:34.163Z,1.05
2019-03-04T16:37:38.639Z,1.25
2019-03-04T16:39:42.797Z,0.90
2019-03-04T16:41:46.634Z,0.90
2019-03-04T16:43:50.824Z,1.12
2019-03-04T16:45:54.918Z,0.90
2019-03-04T16:47:59.035Z,0.75
2019-03-04T16:50:03.157Z,1.12
2019-03-04T16:52:07.263Z,1.25
2019-03-04T16:54:11.471Z,1.00
2019-03-04T16:56:15.573Z,1.10
2019-03-04T16:58:19.695Z,1.45
2019-03-04T17:00:24.627Z,1.40
2019-03-04T17:02:28.838Z,0.78
2019-03-04T17:04:34.308Z,1.17
2019-03-04T17:06:38.393Z,0.85
2019-03-04T17:08:42.506Z,1.00
2019-03-04T17:10:48.533Z,1.47
2019-03-04T17:12:54.592Z,1.10
2019-03-04T17:14:58.819Z,1.47
2019-03-04T17:17:05.990Z,1.20
2019-03-04T17:19:10.108Z,1.10
2019-03-04T17:21:14.228Z,1.05
2019-03-04T17:23:18.046Z,1.60
2019-03-04T17:25:25.966Z,1.50
2019-03-04T17:27:30.153Z,1.52
2019-03-04T17:29:33.976Z,1.22
2019-03-04T17:31:38.167Z,1.50
2019-03-04T17:33:42.259Z,1.30
2019-03-04T17:35:48.244Z,1.50
2019-03-04T17:37:52.643Z,1.62
2019-03-04T17:39:56.450Z,1.32
2019-03-04T17:42:00.682Z,2.30
2019-03-04T17:44:06.607Z,1.62
2019-03-04T17:46:13.018Z,1.70
2019-03-04T17:48:16.809Z,1.80
2019-03-04T17:50:37.645Z,1.57
2019-03-04T17:52:41.544Z,1.98
2019-03-04T17:54:45.429Z,1.87
2019-03-04T17:56:51.604Z,2.08
2019-03-04T17:58:55.760Z,1.80
2019-03-04T18:00:59.858Z,2.00
2019-03-04T18:03:03.662Z,1.98
2019-03-04T18:05:09.927Z,2.50
2019-03-04T18:07:14.034Z,2.33
2019-03-04T18:09:18.291Z,2.30
2019-03-04T18:11:22.485Z,2.50
2019-03-04T18:13:26.312Z,2.42
2019-03-04T18:15:36.416Z,2.83
2019-03-04T18:17:40.312Z,3.95
2019-03-04T18:19:44.445Z,3.80
2019-03-04T18:21:48.278Z,4.62
2019-03-04T18:23:52.454Z,5.50
2019-03-04T18:26:12.221Z,5.85
2019-03-04T18:28:42.176Z,6.25
2019-03-04T18:31:10.137Z,6.90
2019-03-04T18:33:28.636Z,8.87
2019-03-04T18:36:05.235Z,7.97
2019-03-04T18:38:24.293Z,8.38
2019-03-04T18:40:47.979Z,9.57
2019-03-04T18:43:06.958Z,9.03
2019-03-04T18:45:45.219Z,8.93
2019-03-04T18:48:10.645Z,7.40
2019-03-04T18:50:15.064Z,7.43
2019-03-04T18:52:19.468Z,6.58
2019-03-04T18:54:23.704Z,5.58
2019-03-04T18:56:27.902Z,5.30
2019-03-04T18:58:32.014Z,5.10
2019-03-04T19:00:35.831Z,5.65
2019-03-04T19:02:40.023Z,4.80
2019-03-04T19:04:44.238Z,4.80
2019-03-04T19:06:48.348Z,4.15
2019-03-04T19:08:53.994Z,4.75
2019-03-04T19:10:58.111Z,4.55
2019-03-04T19:13:02.225Z,4.10
2019-03-04T19:15:09.396Z,4.25
2019-03-04T19:17:13.516Z,4.58
2019-03-04T19:19:17.429Z,4.10
2019-03-04T19:21:21.620Z,4.50
2019-03-04T19:23:27.476Z,3.65
2019-03-04T19:25:31.583Z,4.22
2019-03-04T19:27:38.124Z,3.45
2019-03-04T19:29:42.271Z,2.90
2019-03-04T19:31:46.402Z,3.10
2019-03-04T19:33:50.632Z,3.25
2019-03-04T19:35:54.799Z,3.10
2019-03-04T19:38:01.170Z,2.92
2019-03-04T19:40:08.747Z,2.98
2019-03-04T19:42:12.560Z,2.75
2019-03-04T19:44:16.775Z,2.90
2019-03-04T19:46:21.012Z,3.15
2019-03-04T19:48:25.806Z,4.10
2019-03-04T19:50:29.717Z,3.75
2019-03-04T19:52:33.544Z,4.62
2019-03-04T19:54:38.870Z,4.10
2019-03-04T19:56:42.860Z,4.60
2019-03-04T19:58:46.970Z,4.20
2019-03-04T20:00:52.613Z,4.22
2019-03-04T20:02:57.026Z,4.92
2019-03-04T20:05:02.515Z,5.58
2019-03-04T20:07:06.416Z,5.70
2019-03-04T20:09:10.281Z,5.22
2019-03-04T20:11:14.190Z,5.28
2019-03-04T20:13:19.004Z,5.33
2019-03-04T20:15:28.562Z,5.40
2019-03-04T20:17:32.686Z,5.00
2019-03-04T20:19:36.994Z,5.03
2019-03-04T20:21:41.090Z,5.28
2019-03-04T20:23:45.308Z,5.35
2019-03-04T20:25:53.512Z,6.25
2019-03-04T20:27:57.409Z,6.55
2019-03-04T20:30:01.247Z,6.83
2019-03-04T20:32:05.540Z,6.50
2019-03-04T20:34:09.400Z,6.78
2019-03-04T20:36:13.976Z,6.87
2019-03-04T20:38:23.620Z,7.28
2019-03-04T20:40:28.028Z,7.50
2019-03-04T20:42:33.241Z,6.75
2019-03-04T20:44:37.363Z,7.08
2019-03-04T20:46:41.211Z,7.42
2019-03-04T20:48:45.244Z,6.87
2019-03-04T20:50:52.083Z,7.37
2019-03-04T20:52:56.756Z,6.70
2019-03-04T20:55:00.567Z,6.33
2019-03-04T20:57:05.485Z,5.83
2019-03-04T20:59:09.654Z,5.92
2019-03-04T21:01:14.141Z,5.50
2019-03-04T21:03:18.277Z,5.60
2019-03-04T21:05:22.599Z,6.30
2019-03-04T21:07:26.995Z,5.75
2019-03-04T21:09:39.083Z,5.20
2019-03-04T21:11:43.067Z,5.60
2019-03-04T21:13:47.317Z,5.05
2019-03-04T21:15:52.346Z,4.78
2019-03-04T21:17:56.463Z,5.55
2019-03-04T21:20:00.652Z,4.83
2019-03-04T21:22:04.873Z,5.00
2019-03-04T21:24:10.837Z,4.30
2019-03-04T21:26:17.955Z,4.70
2019-03-04T21:28:24.891Z,5.20
2019-03-04T21:30:39.987Z,4.70
2019-03-04T21:32:44.874Z,5.28
2019-03-04T21:35:12.742Z,6.25
2019-03-04T21:37:22.623Z,6.15
2019-03-04T21:39:34.165Z,6.45
2019-03-04T21:41:47.196Z,6.45
2019-03-04T21:44:00.109Z,5.95
2019-03-04T21:46:25.447Z,6.08
2019-03-04T21:48:47.765Z,5.40
2019-03-04T21:51:10.096Z,6.05
2019-03-04T21:53:17.279Z,6.12
2019-03-04T21:55:24.381Z,6.47
2019-03-04T21:57:35.375Z,5.65
2019-03-04T21:59:39.176Z,5.08
2019-03-04T22:02:04.537Z,4.33
2019-03-04T22:04:08.976Z,4.50
2019-03-04T22:06:13.164Z,4.72
2019-03-04T22:08:17.513Z,3.87
2019-03-04T22:10:21.689Z,4.12
2019-03-04T22:12:25.802Z,3.95
2019-03-04T22:14:30.119Z,4.17
2019-03-04T22:16:34.244Z,4.42
2019-03-04T22:18:38.458Z,4.30
2019-03-04T22:20:42.770Z,4.40
2019-03-04T22:22:47.278Z,5.05
2019-03-04T22:24:51.385Z,5.40
2019-03-04T22:26:55.493Z,5.47
2019-03-04T22:29:00.403Z,4.80
2019-03-04T22:31:05.115Z,5.47
2019-03-04T22:33:09.403Z,4.85
2019-03-04T22:35:17.201Z,4.62
2019-03-04T22:37:21.488Z,4.33
2019-03-04T22:39:25.686Z,4.17
2019-03-04T22:41:29.910Z,4.25
2019-03-04T22:43:33.793Z,3.40
2019-03-04T22:45:37.675Z,4.33
2019-03-04T22:47:41.494Z,4.03
2019-03-04T22:49:45.630Z,4.60
2019-03-04T22:51:49.747Z,4.45
2019-03-04T22:53:53.853Z,4.25
2019-03-04T22:55:58.048Z,4.42
2019-03-04T22:58:02.150Z,4.58
2019-03-04T23:00:42.789Z,4.90
2019-03-04T23:02:54.656Z,5.37
2019-03-04T23:04:52.997Z,4.80
2019-03-04T23:07:07.926Z,6.25
2019-03-04T23:09:15.644Z,4.78
2019-03-04T23:11:22.946Z,5.35
2019-03-04T23:13:35.554Z,4.75
2019-03-04T23:15:39.767Z,5.28
2019-03-04T23:17:45.066Z,5.20
2019-03-04T23:19:49.219Z,5.55
2019-03-04T23:21:53.321Z,5.05
2019-03-04T23:23:57.166Z,5.47
2019-03-04T23:26:01.356Z,4.95
2019-03-04T23:28:05.544Z,5.28
2019-03-04T23:30:15.142Z,5.35
2019-03-04T23:32:18.959Z,4.72
2019-03-04T23:34:24.625Z,4.45
2019-03-04T23:36:28.963Z,3.02
2019-03-04T23:38:32.801Z,3.75
2019-03-04T23:40:37.166Z,2.83
2019-03-04T23:42:41.282Z,2.77
2019-03-04T23:44:45.401Z,3.12
2019-03-04T23:46:50.018Z,2.47
2019-03-04T23:48:54.144Z,2.20
2019-03-04T23:50:57.967Z,2.20
2019-03-04T23:53:03.781Z,1.60
2019-03-04T23:55:09.125Z,2.40
2019-03-04T23:57:12.930Z,2.30
2019-03-04T23:59:17.046Z,2.40
